Juan Ramon Egana — EAUT — position and weather

sailwx.info

Track history (hours):
 
Tides and Currents Weather Stations Pressure Air Temp Water Temp Dewpoint Dewpoint Depression Visibility Wind Speed Wind Dir Waves Ship Positions

Juan Ramon Egana

Last reported at 2017-Nov-19 14:00 UTC. Time now 2017-Nov-19 14:20 UTC.
Position N 37°49' W 009°51'.

Length 77 m.

Type: Fishing. MMSI: 224501000.

Date/timePositionNaut miles runAvg speedWind from/ knotsBaromVisibWave heightAir tempDewpointWater temp
2017-Nov-19 14:00N 37°49' W 009°51'612.8
2017-Nov-19 13:30N 37°55' W 009°53'612.8
2017-Nov-19 13:00N 38°01' W 009°55'612.9
2017-Nov-19 12:31N 38°08' W 009°57'713.2
2017-Nov-19 12:01N 38°14' W 009°58'612.9
2017-Nov-19 11:31N 38°20' W 009°60'612.7
2017-Nov-19 11:00N 38°27' W 010°01'612.8
2017-Nov-19 10:30N 38°33' W 010°04'612.5
2017-Nov-19 10:00N 38°39' W 010°05'612.5
2017-Nov-19 09:30N 38°45' W 010°06'612.7
2017-Nov-19 09:01N 38°51' W 010°07'612.6
2017-Nov-19 08:31N 38°58' W 010°07'612.8
2017-Nov-19 08:00N 39°04' W 010°07'612.8
2017-Nov-19 07:31N 39°10' W 010°07'612.7
2017-Nov-19 07:00N 39°17' W 010°08'612.7
2017-Nov-19 06:30N 39°23' W 010°08'3912.5
2017-Nov-19 03:26N 40°02' W 010°07'1712.9
2017-Nov-19 02:07N 40°19' W 010°06'212.9
2017-Nov-19 01:56N 40°21' W 010°06'613.2
2017-Nov-19 01:29N 40°27' W 010°06'613.3
2017-Nov-19 01:00N 40°33' W 010°06'813.2
2017-Nov-19 00:26N 40°41' W 010°06'1412.6
2017-Nov-18 23:19N 40°55' W 010°07'20410.0
2017-Nov-18 02:56N 43°50' W 007°43'512.4
2017-Nov-18 02:30N 43°49' W 007°36'612.6
2017-Nov-18 02:00N 43°48' W 007°27'612.1
2017-Nov-18 01:30N 43°47' W 007°19'612.5
2017-Nov-18 00:59N 43°46' W 007°10'53 1.4
2017-Nov-16 10:16N 43°37' W 005°58'2 4.5
2017-Nov-16 09:48N 43°39' W 005°57'3 9.2
2017-Nov-16 09:30N 43°42' W 005°57'2 1.4
2017-Nov-16 08:23N 43°41' W 005°54'4 9.4
2017-Nov-16 07:59N 43°40' W 005°59'5 9.7
2017-Nov-16 07:26N 43°38' W 006°06'4913.8
2017-Nov-16 03:54N 43°46' W 007°13'513.8
2017-Nov-16 03:30N 43°47' W 007°21'713.8
2017-Nov-16 03:00N 43°48' W 007°30'713.5
2017-Nov-16 02:30N 43°49' W 007°39'713.7
2017-Nov-16 02:00N 43°50' W 007°49'17510.7
2017-Nov-15 09:40N 41°02' W 008°57'314.2
2017-Nov-15 09:26N 40°58' W 008°56'  
2017-Nov-10 22:38N 39°31' W 009°43'1 9.2
2017-Nov-10 22:29N 39°30' W 009°44'4 9.4
2017-Nov-10 22:00N 39°26' W 009°45'5 9.3
2017-Nov-10 21:30N 39°21' W 009°46'5 9.5
2017-Nov-10 21:00N 39°16' W 009°46'510.1
2017-Nov-10 20:30N 39°11' W 009°47'510.1
2017-Nov-10 20:00N 39°06' W 009°48'510.0
2017-Nov-10 19:30N 39°01' W 009°49'5 9.9
2017-Nov-10 19:00N 38°56' W 009°49'510.3
2017-Nov-10 18:30N 38°51' W 009°50'510.6
2017-Nov-10 18:00N 38°46' W 009°50'510.0
2017-Nov-10 17:30N 38°41' W 009°49'510.1
2017-Nov-10 17:00N 38°36' W 009°46'510.1
2017-Nov-10 16:30N 38°31' W 009°45'510.2
2017-Nov-10 16:00N 38°27' W 009°44'510.2
2017-Nov-10 15:30N 38°22' W 009°42'510.0
2017-Nov-10 15:00N 38°17' W 009°41'510.1
2017-Nov-10 14:30N 38°12' W 009°39'510.9
2017-Nov-10 14:00N 38°06' W 009°38'510.8
2017-Nov-10 13:30N 38°01' W 009°37'911.2
2017-Nov-10 12:42N 37°52' W 009°35'211.2
2017-Nov-10 12:30N 37°50' W 009°34'1111.0
2017-Nov-10 11:29N 37°39' W 009°31'1211.2
2017-Nov-10 10:25N 37°27' W 009°28'5010.4
2017-Nov-10 05:36N 36°43' W 009°01'911.9
2017-Nov-10 04:49N 36°45' W 008°49'412.0
2017-Nov-10 04:30N 36°45' W 008°45'712.3
2017-Nov-10 03:55N 36°46' W 008°36'512.5
2017-Nov-10 03:30N 36°47' W 008°29'612.3
2017-Nov-10 02:59N 36°48' W 008°22'812.2
2017-Nov-10 02:21N 36°50' W 008°12'412.0
2017-Nov-10 02:00N 36°51' W 008°07'  
Track history (hours):
 
Tides and Currents Weather Stations Pressure Air Temp Water Temp Dewpoint Dewpoint Depression Visibility Wind Speed Wind Dir Waves Ship Positions

Juan Ramon Egana

Last reported at 2017-Nov-19 14:00 UTC. Time now 2017-Nov-19 14:20 UTC.
Position N 37°49' W 009°51'.

Length 77 m.

Type: Fishing. MMSI: 224501000.

Date/timePositionNaut miles runAvg speedWind from/ knotsBaromVisibWave heightAir tempDewpointWater temp
2017-Nov-19 14:00N 37°49' W 009°51'612.8
2017-Nov-19 13:30N 37°55' W 009°53'612.8
2017-Nov-19 13:00N 38°01' W 009°55'612.9
2017-Nov-19 12:31N 38°08' W 009°57'713.2
2017-Nov-19 12:01N 38°14' W 009°58'612.9
2017-Nov-19 11:31N 38°20' W 009°60'612.7
2017-Nov-19 11:00N 38°27' W 010°01'612.8
2017-Nov-19 10:30N 38°33' W 010°04'612.5
2017-Nov-19 10:00N 38°39' W 010°05'612.5
2017-Nov-19 09:30N 38°45' W 010°06'612.7
2017-Nov-19 09:01N 38°51' W 010°07'612.6
2017-Nov-19 08:31N 38°58' W 010°07'612.8
2017-Nov-19 08:00N 39°04' W 010°07'612.8
2017-Nov-19 07:31N 39°10' W 010°07'612.7
2017-Nov-19 07:00N 39°17' W 010°08'612.7
2017-Nov-19 06:30N 39°23' W 010°08'3912.5
2017-Nov-19 03:26N 40°02' W 010°07'1712.9
2017-Nov-19 02:07N 40°19' W 010°06'212.9
2017-Nov-19 01:56N 40°21' W 010°06'613.2
2017-Nov-19 01:29N 40°27' W 010°06'613.3
2017-Nov-19 01:00N 40°33' W 010°06'813.2
2017-Nov-19 00:26N 40°41' W 010°06'1412.6
2017-Nov-18 23:19N 40°55' W 010°07'20410.0
2017-Nov-18 02:56N 43°50' W 007°43'512.4
2017-Nov-18 02:30N 43°49' W 007°36'612.6
2017-Nov-18 02:00N 43°48' W 007°27'612.1
2017-Nov-18 01:30N 43°47' W 007°19'612.5
2017-Nov-18 00:59N 43°46' W 007°10'53 1.4
2017-Nov-16 10:16N 43°37' W 005°58'2 4.5
2017-Nov-16 09:48N 43°39' W 005°57'3 9.2
2017-Nov-16 09:30N 43°42' W 005°57'2 1.4
2017-Nov-16 08:23N 43°41' W 005°54'4 9.4
2017-Nov-16 07:59N 43°40' W 005°59'5 9.7
2017-Nov-16 07:26N 43°38' W 006°06'4913.8
2017-Nov-16 03:54N 43°46' W 007°13'513.8
2017-Nov-16 03:30N 43°47' W 007°21'713.8
2017-Nov-16 03:00N 43°48' W 007°30'713.5
2017-Nov-16 02:30N 43°49' W 007°39'713.7
2017-Nov-16 02:00N 43°50' W 007°49'17510.7
2017-Nov-15 09:40N 41°02' W 008°57'314.2
2017-Nov-15 09:26N 40°58' W 008°56'  
2017-Nov-10 22:38N 39°31' W 009°43'1 9.2
2017-Nov-10 22:29N 39°30' W 009°44'4 9.4
2017-Nov-10 22:00N 39°26' W 009°45'5 9.3
2017-Nov-10 21:30N 39°21' W 009°46'5 9.5
2017-Nov-10 21:00N 39°16' W 009°46'510.1
2017-Nov-10 20:30N 39°11' W 009°47'510.1
2017-Nov-10 20:00N 39°06' W 009°48'510.0
2017-Nov-10 19:30N 39°01' W 009°49'5 9.9
2017-Nov-10 19:00N 38°56' W 009°49'510.3
2017-Nov-10 18:30N 38°51' W 009°50'510.6
2017-Nov-10 18:00N 38°46' W 009°50'510.0
2017-Nov-10 17:30N 38°41' W 009°49'510.1
2017-Nov-10 17:00N 38°36' W 009°46'510.1
2017-Nov-10 16:30N 38°31' W 009°45'510.2
2017-Nov-10 16:00N 38°27' W 009°44'510.2
2017-Nov-10 15:30N 38°22' W 009°42'510.0
2017-Nov-10 15:00N 38°17' W 009°41'510.1
2017-Nov-10 14:30N 38°12' W 009°39'510.9
2017-Nov-10 14:00N 38°06' W 009°38'510.8
2017-Nov-10 13:30N 38°01' W 009°37'911.2
2017-Nov-10 12:42N 37°52' W 009°35'211.2
2017-Nov-10 12:30N 37°50' W 009°34'1111.0
2017-Nov-10 11:29N 37°39' W 009°31'1211.2
2017-Nov-10 10:25N 37°27' W 009°28'5010.4
2017-Nov-10 05:36N 36°43' W 009°01'911.9
2017-Nov-10 04:49N 36°45' W 008°49'412.0
2017-Nov-10 04:30N 36°45' W 008°45'712.3
2017-Nov-10 03:55N 36°46' W 008°36'512.5
2017-Nov-10 03:30N 36°47' W 008°29'612.3
2017-Nov-10 02:59N 36°48' W 008°22'812.2
2017-Nov-10 02:21N 36°50' W 008°12'412.0
2017-Nov-10 02:00N 36°51' W 008°07'  

Dump ship's entire track history